createdAt,value
2017-01-25T00:01:54.105Z,-4.33
2017-01-25T00:04:01.496Z,-4.33
2017-01-25T00:06:13.785Z,-4.33
2017-01-25T00:08:25.995Z,-4.33
2017-01-25T00:10:38.640Z,-4.32
2017-01-25T00:12:51.685Z,-4.31
2017-01-25T00:15:04.124Z,-4.3
2017-01-25T00:17:11.476Z,-4.31
2017-01-25T00:19:23.696Z,-4.32
2017-01-25T00:21:35.845Z,-4.32
2017-01-25T00:23:48.201Z,-4.33
2017-01-25T00:26:00.359Z,-4.32
2017-01-25T00:28:12.605Z,-4.34
2017-01-25T00:30:24.743Z,-4.35
2017-01-25T00:32:37.113Z,-4.35
2017-01-25T00:34:49.650Z,-4.34
2017-01-25T00:37:01.952Z,-4.34
2017-01-25T00:39:14.152Z,-4.35
2017-01-25T00:41:26.430Z,-4.37
2017-01-25T00:43:38.693Z,-4.38
2017-01-25T00:45:51.038Z,-4.4
2017-01-25T00:48:03.750Z,-4.4
2017-01-25T00:50:16.274Z,-4.39
2017-01-25T00:52:28.517Z,-4.4
2017-01-25T00:54:40.707Z,-4.41
2017-01-25T00:56:53.038Z,-4.41
2017-01-25T00:59:05.316Z,-4.4
2017-01-25T01:01:17.509Z,-4.4
2017-01-25T01:03:29.765Z,-4.38
2017-01-25T01:05:42.051Z,-4.37
2017-01-25T01:07:54.583Z,-4.37
2017-01-25T01:10:06.858Z,-4.39
2017-01-25T01:12:09.225Z,-4.4
2017-01-25T01:14:21.392Z,-4.4
2017-01-25T01:16:33.601Z,-4.4
2017-01-25T01:18:45.899Z,-4.4
2017-01-25T01:20:58.194Z,-4.39
2017-01-25T01:23:10.909Z,-4.38
2017-01-25T01:25:18.324Z,-4.38
2017-01-25T01:27:30.592Z,-4.38
2017-01-25T01:29:43.034Z,-4.38
2017-01-25T01:31:55.168Z,-4.38
2017-01-25T01:34:07.705Z,-4.37
2017-01-25T01:36:15.145Z,-4.37
2017-01-25T01:38:27.403Z,-4.36
2017-01-25T01:40:39.668Z,-4.37
2017-01-25T01:42:46.977Z,-4.39
2017-01-25T01:44:59.206Z,-4.41
2017-01-25T01:47:11.533Z,-4.42
2017-01-25T01:49:23.887Z,-4.41
2017-01-25T01:51:36.212Z,-4.39
2017-01-25T01:53:48.513Z,-4.38
2017-01-25T01:56:01.291Z,-4.37
2017-01-25T01:58:13.978Z,-4.36
2017-01-25T02:00:26.207Z,-4.36
2017-01-25T02:02:33.624Z,-4.35
2017-01-25T02:04:45.935Z,-4.36
2017-01-25T02:06:58.214Z,-4.36
2017-01-25T02:09:10.545Z,-4.36
2017-01-25T02:11:12.820Z,-4.37
2017-01-25T02:13:20.303Z,-4.38
2017-01-25T02:15:32.439Z,-4.38
2017-01-25T02:17:44.646Z,-4.38
2017-01-25T02:19:57.099Z,-4.37
2017-01-25T02:22:04.395Z,-4.38
2017-01-25T02:24:16.736Z,-4.39
2017-01-25T02:26:29.087Z,-4.4
2017-01-25T02:28:41.802Z,-4.42
2017-01-25T02:30:54.686Z,-4.43
2017-01-25T02:33:07.112Z,-4.42
2017-01-25T02:35:09.483Z,-4.42
2017-01-25T02:37:21.746Z,-4.4
2017-01-25T02:39:29.153Z,-4.39
2017-01-25T02:41:41.320Z,-4.4
2017-01-25T02:43:53.505Z,-4.4
2017-01-25T02:46:05.732Z,-4.43
2017-01-25T02:48:17.925Z,-4.47
2017-01-25T02:50:25.250Z,-4.49
2017-01-25T02:52:32.586Z,-4.51
2017-01-25T02:54:44.839Z,-4.56
2017-01-25T02:56:57.126Z,-4.56
2017-01-25T02:59:09.519Z,-4.56
2017-01-25T03:01:21.948Z,-4.55
2017-01-25T03:03:24.663Z,-4.55
2017-01-25T03:05:37.574Z,-4.58
2017-01-25T03:07:50.144Z,-4.59
2017-01-25T03:10:02.415Z,-4.57
2017-01-25T03:12:09.686Z,-4.56
2017-01-25T03:14:21.928Z,-4.58
2017-01-25T03:16:34.245Z,-4.61
2017-01-25T03:18:46.527Z,-4.66
2017-01-25T03:20:58.715Z,-4.71
2017-01-25T03:23:11.009Z,-4.73
2017-01-25T03:25:23.208Z,-4.76
2017-01-25T03:27:35.432Z,-4.76
2017-01-25T03:29:47.764Z,-4.76
2017-01-25T03:31:59.887Z,-4.76
2017-01-25T03:34:12.109Z,-4.75
2017-01-25T03:36:24.280Z,-4.73
2017-01-25T03:38:36.787Z,-4.75
2017-01-25T03:40:49.467Z,-4.77
2017-01-25T03:43:01.796Z,-4.79
2017-01-25T03:45:14.444Z,-4.81
2017-01-25T03:47:26.710Z,-4.82
2017-01-25T03:49:38.927Z,-4.79
2017-01-25T03:51:51.233Z,-4.78
2017-01-25T03:54:03.671Z,-4.79
2017-01-25T03:56:16.358Z,-4.82
2017-01-25T03:58:28.743Z,-4.84
2017-01-25T04:00:40.965Z,-4.85
2017-01-25T04:02:53.185Z,-4.83
2017-01-25T04:05:05.355Z,-4.84
2017-01-25T04:07:17.875Z,-4.84
2017-01-25T04:09:30.135Z,-4.85
2017-01-25T04:11:42.461Z,-4.89
2017-01-25T04:13:55.474Z,-4.92
2017-01-25T04:16:07.929Z,-4.94
2017-01-25T04:18:20.258Z,-4.95
2017-01-25T04:20:32.601Z,-4.95
2017-01-25T04:22:44.974Z,-4.95
2017-01-25T04:24:59.291Z,-4.95
2017-01-25T04:27:11.565Z,-4.95
2017-01-25T04:29:23.940Z,-4.95
2017-01-25T04:31:36.238Z,-4.95
2017-01-25T04:33:48.483Z,-4.93
2017-01-25T04:36:00.880Z,-4.94
2017-01-25T04:38:13.050Z,-4.92
2017-01-25T04:40:25.264Z,-4.91
2017-01-25T04:42:37.434Z,-4.9
2017-01-25T04:44:49.633Z,-4.88
2017-01-25T04:47:02.345Z,-4.89
2017-01-25T04:49:14.951Z,-4.87
2017-01-25T04:51:27.343Z,-4.85
2017-01-25T04:53:40.205Z,-4.82
2017-01-25T04:55:52.360Z,-4.81
2017-01-25T04:58:04.775Z,-4.81
2017-01-25T05:00:16.996Z,-4.82
2017-01-25T05:02:29.263Z,-4.83
2017-01-25T05:04:41.559Z,-4.86
2017-01-25T05:06:48.872Z,-4.87
2017-01-25T05:08:59.462Z,-4.89
2017-01-25T05:11:11.758Z,-4.89
2017-01-25T05:13:24.082Z,-4.9
2017-01-25T05:15:36.331Z,-4.88
2017-01-25T05:17:48.782Z,-4.85
2017-01-25T05:20:01.927Z,-4.82
2017-01-25T05:22:14.519Z,-4.83
2017-01-25T05:24:27.279Z,-4.86
2017-01-25T05:26:34.541Z,-4.92
2017-01-25T05:28:41.798Z,-4.95
2017-01-25T05:30:53.949Z,-4.97
2017-01-25T05:33:06.126Z,-4.98
2017-01-25T05:35:18.468Z,-4.99
2017-01-25T05:37:30.740Z,-5
2017-01-25T05:39:42.938Z,-5.01
2017-01-25T05:41:55.325Z,-5.03
2017-01-25T05:44:07.466Z,-5.03
2017-01-25T05:46:19.874Z,-5.02
2017-01-25T05:48:32.170Z,-5
2017-01-25T05:50:44.462Z,-4.99
2017-01-25T05:52:56.644Z,-4.98
2017-01-25T05:55:08.839Z,-4.95
2017-01-25T05:57:21.509Z,-4.94
2017-01-25T05:59:34.260Z,-4.95
2017-01-25T06:01:46.686Z,-4.93
2017-01-25T06:03:59.163Z,-4.93
2017-01-25T06:06:11.620Z,-4.9
2017-01-25T06:08:23.986Z,-4.91
2017-01-25T06:10:36.143Z,-4.89
2017-01-25T06:12:48.381Z,-4.88
2017-01-25T06:15:00.825Z,-4.89
2017-01-25T06:17:12.968Z,-4.88
2017-01-25T06:19:25.243Z,-4.86
2017-01-25T06:21:37.412Z,-4.83
2017-01-25T06:23:49.797Z,-4.81
2017-01-25T06:26:02.071Z,-4.78
2017-01-25T06:28:15.910Z,-4.75
2017-01-25T06:30:28.514Z,-4.74
2017-01-25T06:32:41.138Z,-4.75
2017-01-25T06:34:53.440Z,-4.74
2017-01-25T06:37:05.845Z,-4.71
2017-01-25T06:39:18.290Z,-4.69
2017-01-25T06:41:25.535Z,-4.65
2017-01-25T06:43:37.825Z,-4.64
2017-01-25T06:45:50.048Z,-4.64
2017-01-25T06:48:02.278Z,-4.66
2017-01-25T06:50:14.487Z,-4.65
2017-01-25T06:52:22.024Z,-4.65
2017-01-25T06:54:34.331Z,-4.66
2017-01-25T06:56:46.495Z,-4.64
2017-01-25T06:58:58.870Z,-4.63
2017-01-25T07:01:11.280Z,-4.61
2017-01-25T07:03:23.777Z,-4.59
2017-01-25T07:05:36.434Z,-4.56
2017-01-25T07:07:44.195Z,-4.53
2017-01-25T07:09:51.561Z,-4.51
2017-01-25T07:12:03.882Z,-4.47
2017-01-25T07:14:06.337Z,-4.43
2017-01-25T07:16:18.723Z,-4.41
2017-01-25T07:18:26.131Z,-4.38
2017-01-25T07:20:38.726Z,-4.34
2017-01-25T07:22:46.041Z,-4.3
2017-01-25T07:24:58.397Z,-4.23
2017-01-25T07:27:10.586Z,-4.19
2017-01-25T07:29:22.980Z,-4.14
2017-01-25T07:31:30.497Z,-4.1
2017-01-25T07:33:43.077Z,-4.06
2017-01-25T07:36:09.363Z,-4
2017-01-25T07:38:29.905Z,-3.93
2017-01-25T07:40:38.568Z,-3.88
2017-01-25T07:42:51.291Z,-3.83
2017-01-25T07:44:58.511Z,-3.8
2017-01-25T07:47:10.838Z,-3.78
2017-01-25T07:49:24.343Z,-3.75
2017-01-25T07:51:36.920Z,-3.72
2017-01-25T07:53:49.267Z,-3.67
2017-01-25T07:56:01.676Z,-3.62
2017-01-25T07:58:14.318Z,-3.52
2017-01-25T08:00:26.838Z,-3.44
2017-01-25T08:02:39.381Z,-3.35
2017-01-25T08:04:52.562Z,-3.3
2017-01-25T08:07:05.864Z,-3.23
2017-01-25T08:09:19.128Z,-3.17
2017-01-25T08:11:31.578Z,-3.09
2017-01-25T08:13:43.777Z,-3.03
2017-01-25T08:15:56.132Z,-2.96
2017-01-25T08:18:08.530Z,-2.93
2017-01-25T08:20:21.578Z,-2.89
2017-01-25T08:22:34.148Z,-2.84
2017-01-25T08:24:46.658Z,-2.8
2017-01-25T08:26:58.910Z,-2.77
2017-01-25T08:29:11.263Z,-2.76
2017-01-25T08:31:18.761Z,-2.71
2017-01-25T08:33:30.985Z,-2.66
2017-01-25T08:35:43.357Z,-2.6
2017-01-25T08:37:55.834Z,-2.53
2017-01-25T08:40:08.283Z,-2.46
2017-01-25T08:42:20.763Z,-2.37
2017-01-25T08:44:33.156Z,-2.3
2017-01-25T08:46:45.553Z,-2.25
2017-01-25T08:48:57.774Z,-2.23
2017-01-25T08:51:05.273Z,-2.19
2017-01-25T08:53:17.867Z,-2.13
2017-01-25T08:55:30.388Z,-2.05
2017-01-25T08:57:42.970Z,-1.95
2017-01-25T08:59:55.195Z,-1.87
2017-01-25T09:02:02.701Z,-1.79
2017-01-25T09:04:15.029Z,-1.72
2017-01-25T09:06:27.259Z,-1.66
2017-01-25T09:08:39.525Z,-1.59
2017-01-25T09:10:46.948Z,-1.51
2017-01-25T09:12:54.194Z,-1.45
2017-01-25T09:15:06.609Z,-1.37
2017-01-25T09:17:18.787Z,-1.28
2017-01-25T09:19:31.221Z,-1.16
2017-01-25T09:21:43.797Z,-0.98
2017-01-25T09:23:56.046Z,-0.87
2017-01-25T09:26:08.228Z,-0.84
2017-01-25T09:28:20.682Z,-0.82
2017-01-25T09:30:33.735Z,-0.8
2017-01-25T09:32:46.402Z,-0.78
2017-01-25T09:34:58.643Z,-0.71
2017-01-25T09:37:11.172Z,-0.61
2017-01-25T09:39:23.683Z,-0.5
2017-01-25T09:41:36.087Z,-0.37
2017-01-25T09:43:48.774Z,-0.33
2017-01-25T09:46:01.232Z,-0.3
2017-01-25T09:48:16.410Z,-0.26
2017-01-25T09:50:30.903Z,-0.21
2017-01-25T09:52:43.293Z,-0.19
2017-01-25T09:54:55.522Z,-0.12
2017-01-25T09:57:07.794Z,-0.1
2017-01-25T09:59:18.453Z,-0.09
2017-01-25T10:01:30.921Z,-0.07
2017-01-25T10:03:43.436Z,-0.01
2017-01-25T10:05:51.190Z,0.04
2017-01-25T10:08:03.656Z,0.12
2017-01-25T10:10:16.082Z,0.15
2017-01-25T10:12:23.540Z,0.13
2017-01-25T10:14:35.903Z,0.11
2017-01-25T10:16:38.381Z,0.07
2017-01-25T10:18:50.720Z,0.06
2017-01-25T10:21:03.464Z,0.07
2017-01-25T10:23:15.909Z,0.18
2017-01-25T10:25:28.147Z,0.33
2017-01-25T10:27:35.452Z,0.4
2017-01-25T10:29:47.660Z,0.52
2017-01-25T10:31:59.979Z,0.55
2017-01-25T10:34:12.252Z,0.58
2017-01-25T10:36:24.655Z,0.64
2017-01-25T10:38:36.996Z,0.77
2017-01-25T10:40:49.675Z,0.76
2017-01-25T10:42:58.125Z,0.76
2017-01-25T10:45:10.311Z,0.72
2017-01-25T10:47:22.742Z,0.65
2017-01-25T10:49:34.968Z,0.68
2017-01-25T10:51:47.283Z,0.64
2017-01-25T10:53:59.541Z,0.7
2017-01-25T10:56:11.805Z,0.71
2017-01-25T10:58:24.530Z,0.74
2017-01-25T11:00:34.971Z,0.75
2017-01-25T11:02:42.221Z,0.79
2017-01-25T11:04:54.498Z,0.79
2017-01-25T11:07:01.748Z,0.87
2017-01-25T11:09:13.979Z,0.91
2017-01-25T11:11:26.405Z,0.93
2017-01-25T11:13:38.861Z,1.01
2017-01-25T11:15:51.209Z,1.07
2017-01-25T11:18:03.720Z,1.11
2017-01-25T11:20:16.234Z,1.14
2017-01-25T11:22:28.476Z,1.17
2017-01-25T11:24:35.717Z,1.23
2017-01-25T11:26:48.460Z,1.26
2017-01-25T11:29:00.843Z,1.32
2017-01-25T11:31:13.261Z,1.36
2017-01-25T11:33:25.699Z,1.37
2017-01-25T11:35:38.059Z,1.41
2017-01-25T11:37:50.551Z,1.46
2017-01-25T11:40:02.756Z,1.52
2017-01-25T11:42:09.951Z,1.59
2017-01-25T11:44:22.259Z,1.66
2017-01-25T11:46:34.645Z,1.6
2017-01-25T11:48:47.069Z,1.56
2017-01-25T11:50:59.563Z,1.56
2017-01-25T11:53:07.206Z,1.56
2017-01-25T11:55:19.548Z,1.54
2017-01-25T11:57:31.877Z,1.56
2017-01-25T11:59:39.166Z,1.59
2017-01-25T12:01:51.369Z,1.56
2017-01-25T12:04:09.417Z,1.51
2017-01-25T12:06:21.642Z,1.53
2017-01-25T12:08:34.078Z,1.58
2017-01-25T12:10:41.485Z,1.58
2017-01-25T12:12:55.352Z,1.55
2017-01-25T12:15:07.789Z,1.56
2017-01-25T12:17:20.170Z,1.54
2017-01-25T12:19:32.404Z,1.51
2017-01-25T12:21:39.929Z,1.48
2017-01-25T12:23:52.120Z,1.49
2017-01-25T12:26:04.391Z,1.56
2017-01-25T12:28:11.876Z,1.67
2017-01-25T12:30:19.446Z,1.73
2017-01-25T12:32:31.891Z,1.75
2017-01-25T12:34:44.295Z,1.81
2017-01-25T12:36:56.586Z,1.8
2017-01-25T12:39:08.814Z,1.79
2017-01-25T12:41:16.141Z,1.78
2017-01-25T12:43:23.460Z,1.7
2017-01-25T12:45:30.847Z,1.57
2017-01-25T12:47:43.174Z,1.5
2017-01-25T12:49:57.064Z,1.48
2017-01-25T12:52:09.342Z,1.45
2017-01-25T12:54:21.787Z,1.43
2017-01-25T12:56:34.009Z,1.39
2017-01-25T12:58:46.440Z,1.31
2017-01-25T13:00:48.951Z,1.32
2017-01-25T13:03:01.304Z,1.31
2017-01-25T13:05:13.896Z,1.3
2017-01-25T13:07:26.149Z,1.29
2017-01-25T13:09:38.797Z,1.27
2017-01-25T13:11:51.049Z,1.26
2017-01-25T13:13:59.367Z,1.23
2017-01-25T13:16:11.628Z,1.22
2017-01-25T13:18:23.939Z,1.19
2017-01-25T13:20:36.695Z,1.19
2017-01-25T13:22:49.168Z,1.2
2017-01-25T13:24:57.696Z,1.18
2017-01-25T13:27:10.044Z,1.13
2017-01-25T13:29:22.243Z,1.09
2017-01-25T13:31:34.660Z,1.04
2017-01-25T13:33:47.258Z,1.01
2017-01-25T13:35:59.687Z,0.97
2017-01-25T13:38:12.097Z,0.87
2017-01-25T13:40:24.666Z,0.78
2017-01-25T13:42:32.062Z,0.76
2017-01-25T13:44:44.359Z,0.73
2017-01-25T13:46:56.614Z,0.71
2017-01-25T13:49:03.995Z,0.67
2017-01-25T13:51:16.265Z,0.64
2017-01-25T13:53:29.285Z,0.62
2017-01-25T13:55:36.848Z,0.59
2017-01-25T13:57:46.406Z,0.58
2017-01-25T13:59:58.889Z,0.54
2017-01-25T14:02:11.461Z,0.5
2017-01-25T14:04:23.798Z,0.43
2017-01-25T14:06:36.013Z,0.39
2017-01-25T14:08:48.428Z,0.39
2017-01-25T14:11:00.948Z,0.38
2017-01-25T14:13:13.134Z,0.39
2017-01-25T14:15:22.449Z,0.38
2017-01-25T14:17:29.988Z,0.33
2017-01-25T14:19:43.347Z,0.27
2017-01-25T14:21:55.698Z,0.21
2017-01-25T14:24:08.071Z,0.15
2017-01-25T14:26:21.088Z,0.11
2017-01-25T14:28:34.046Z,0.07
2017-01-25T14:30:46.290Z,0.06
2017-01-25T14:32:58.666Z,0.03
2017-01-25T14:35:11.440Z,-0.03
2017-01-25T14:37:25.044Z,-0.07
2017-01-25T14:39:37.507Z,-0.12
2017-01-25T14:41:49.925Z,-0.18
2017-01-25T14:44:02.317Z,-0.22
2017-01-25T14:46:14.614Z,-0.27
2017-01-25T14:48:27.157Z,-0.34
2017-01-25T14:50:39.536Z,-0.37
2017-01-25T14:52:52.184Z,-0.41
2017-01-25T14:55:06.380Z,-0.43
2017-01-25T14:57:19.891Z,-0.44
2017-01-25T14:59:32.714Z,-0.45
2017-01-25T15:01:45.016Z,-0.48
2017-01-25T15:03:57.376Z,-0.51
2017-01-25T15:06:10.877Z,-0.53
2017-01-25T15:08:23.288Z,-0.56
2017-01-25T15:10:35.796Z,-0.6
2017-01-25T15:12:43.734Z,-0.64
2017-01-25T15:14:57.248Z,-0.65
2017-01-25T15:17:11.084Z,-0.71
2017-01-25T15:19:23.949Z,-0.79
2017-01-25T15:21:37.114Z,-0.84
2017-01-25T15:23:41.355Z,-0.87
2017-01-25T15:25:53.697Z,-0.92
2017-01-25T15:28:06.633Z,-0.96
2017-01-25T15:30:19.558Z,-0.99
2017-01-25T15:32:35.349Z,-1.01
2017-01-25T15:34:49.812Z,-1.04
2017-01-25T15:37:02.466Z,-1.08
2017-01-25T15:39:15.045Z,-1.1
2017-01-25T15:41:27.436Z,-1.14
2017-01-25T15:43:42.410Z,-1.15
2017-01-25T15:45:54.739Z,-1.17
2017-01-25T15:49:03.969Z,-1.23
2017-01-25T15:51:18.190Z,-1.25
2017-01-25T15:53:31.610Z,-1.28
2017-01-25T15:55:44.046Z,-1.28
2017-01-25T15:57:56.360Z,-1.29
2017-01-25T16:00:09.816Z,-1.3
2017-01-25T16:02:22.182Z,-1.32
2017-01-25T16:04:35.878Z,-1.34
2017-01-25T16:06:48.835Z,-1.35
2017-01-25T16:09:01.218Z,-1.37
2017-01-25T16:11:13.608Z,-1.37
2017-01-25T16:13:21.147Z,-1.37
2017-01-25T16:15:33.538Z,-1.38
2017-01-25T16:17:46.970Z,-1.42
2017-01-25T16:19:59.173Z,-1.43
2017-01-25T16:22:11.552Z,-1.41
2017-01-25T16:24:24.253Z,-1.4
2017-01-25T16:26:36.589Z,-1.4
2017-01-25T16:28:48.858Z,-1.39
2017-01-25T16:31:01.377Z,-1.4
2017-01-25T16:33:13.635Z,-1.4
2017-01-25T16:35:25.836Z,-1.42
2017-01-25T16:37:38.256Z,-1.42
2017-01-25T16:39:51.075Z,-1.39
2017-01-25T16:42:03.570Z,-1.36
2017-01-25T16:44:16.054Z,-1.34
2017-01-25T16:46:28.709Z,-1.33
2017-01-25T16:48:37.356Z,-1.31
2017-01-25T16:50:49.658Z,-1.29
2017-01-25T16:53:01.921Z,-1.29
2017-01-25T16:55:14.173Z,-1.28
2017-01-25T16:57:21.387Z,-1.29
2017-01-25T16:59:33.821Z,-1.27
2017-01-25T17:01:46.037Z,-1.27
2017-01-25T17:03:59.011Z,-1.26
2017-01-25T17:06:11.396Z,-1.25
2017-01-25T17:08:23.903Z,-1.24
2017-01-25T17:10:36.187Z,-1.23
2017-01-25T17:12:43.672Z,-1.21
2017-01-25T17:14:56.028Z,-1.2
2017-01-25T17:17:08.367Z,-1.19
2017-01-25T17:19:20.739Z,-1.16
2017-01-25T17:21:28.158Z,-1.18
2017-01-25T17:23:40.989Z,-1.19
2017-01-25T17:25:53.420Z,-1.19
2017-01-25T17:28:05.717Z,-1.21
2017-01-25T17:30:18.156Z,-1.23
2017-01-25T17:32:30.385Z,-1.25
2017-01-25T17:34:37.745Z,-1.27
2017-01-25T17:36:50.236Z,-1.26
2017-01-25T17:39:02.506Z,-1.25
2017-01-25T17:41:14.830Z,-1.22
2017-01-25T17:43:27.090Z,-1.22
2017-01-25T17:45:39.545Z,-1.2
2017-01-25T17:47:51.932Z,-1.18
2017-01-25T17:50:04.405Z,-1.15
2017-01-25T17:52:18.278Z,-1.14
2017-01-25T17:54:30.656Z,-1.14
2017-01-25T17:56:42.976Z,-1.15
2017-01-25T17:58:55.195Z,-1.14
2017-01-25T18:01:08.691Z,-1.14
2017-01-25T18:03:21.128Z,-1.15
2017-01-25T18:05:33.862Z,-1.15
2017-01-25T18:07:41.292Z,-1.14
2017-01-25T18:10:03.215Z,-1.12
2017-01-25T18:12:29.890Z,-1.1
2017-01-25T18:14:52.432Z,-1.11
2017-01-25T18:17:10.469Z,-1.13
2017-01-25T18:19:27.815Z,-1.13
2017-01-25T18:21:43.037Z,-1.13
2017-01-25T18:23:57.149Z,-1.1
2017-01-25T18:26:12.238Z,-1.11
2017-01-25T18:28:26.817Z,-1.1
2017-01-25T18:30:41.441Z,-1.08
2017-01-25T18:32:56.075Z,-1.09
2017-01-25T18:35:11.519Z,-1.08
2017-01-25T18:37:26.013Z,-1.07
2017-01-25T18:39:43.089Z,-1.05
2017-01-25T18:42:01.283Z,-1.03
2017-01-25T18:44:14.023Z,-1.05
2017-01-25T18:46:39.196Z,-1.06
2017-01-25T18:49:31.935Z,-1.04
2017-01-25T18:52:19.365Z,-1.02
2017-01-25T18:55:11.807Z,-1.01
2017-01-25T18:58:06.375Z,-1
2017-01-25T19:00:59.544Z,-1.01
2017-01-25T19:03:53.371Z,-1.01
2017-01-25T19:06:41.389Z,-0.98
2017-01-25T19:08:54.427Z,-0.97
2017-01-25T19:11:21.442Z,-0.96
2017-01-25T19:13:57.387Z,-0.96
2017-01-25T19:16:28.958Z,-0.95
2017-01-25T19:19:03.358Z,-0.94
2017-01-25T19:21:37.229Z,-0.92
2017-01-25T19:24:15.950Z,-0.92
2017-01-25T19:26:53.566Z,-0.9
2017-01-25T19:29:29.116Z,-0.88
2017-01-25T19:31:51.889Z,-0.9
2017-01-25T19:34:18.314Z,-0.92
2017-01-25T19:36:49.040Z,-0.93
2017-01-25T19:39:21.106Z,-0.94
2017-01-25T19:41:52.566Z,-0.95
2017-01-25T19:44:40.032Z,-0.94
2017-01-25T19:47:15.687Z,-0.94
2017-01-25T19:49:47.565Z,-0.96
2017-01-25T19:52:17.607Z,-0.96
2017-01-25T19:54:42.655Z,-0.94
2017-01-25T19:57:13.116Z,-0.93
2017-01-25T19:59:47.314Z,-0.9
2017-01-25T20:02:14.209Z,-0.89
2017-01-25T20:04:42.823Z,-0.88
2017-01-25T20:07:13.977Z,-0.87
2017-01-25T20:09:37.050Z,-0.89
2017-01-25T20:12:03.208Z,-0.92
2017-01-25T20:14:43.071Z,-0.94
2017-01-25T20:17:05.679Z,-0.95
2017-01-25T20:19:34.057Z,-0.95
2017-01-25T20:21:58.471Z,-0.98
2017-01-25T20:24:23.831Z,-0.99
2017-01-25T20:26:53.050Z,-1
2017-01-25T20:29:20.229Z,-0.97
2017-01-25T20:31:53.032Z,-0.96
2017-01-25T20:34:19.143Z,-0.95
2017-01-25T20:36:45.127Z,-0.93
2017-01-25T20:39:01.912Z,-0.93
2017-01-25T20:41:16.693Z,-0.94
2017-01-25T20:43:48.271Z,-0.96
2017-01-25T20:46:21.554Z,-0.96
2017-01-25T20:48:58.548Z,-0.95
2017-01-25T20:51:34.113Z,-0.93
2017-01-25T20:54:09.769Z,-0.93
2017-01-25T20:56:41.438Z,-0.93
2017-01-25T20:59:15.085Z,-0.91
2017-01-25T21:01:53.982Z,-0.89
2017-01-25T21:04:36.693Z,-0.88
2017-01-25T21:07:16.143Z,-0.85
2017-01-25T21:09:58.061Z,-0.85
2017-01-25T21:12:17.299Z,-0.85
2017-01-25T21:14:29.779Z,-0.83
2017-01-25T21:16:42.476Z,-0.83
2017-01-25T21:18:58.971Z,-0.82
2017-01-25T21:21:12.349Z,-0.84
2017-01-25T21:23:24.759Z,-0.85
2017-01-25T21:25:37.309Z,-0.84
2017-01-25T21:27:50.312Z,-0.85
2017-01-25T21:30:03.296Z,-0.88
2017-01-25T21:32:16.129Z,-0.89
2017-01-25T21:34:26.717Z,-0.9
2017-01-25T21:36:39.605Z,-0.88
2017-01-25T21:38:49.323Z,-0.87
2017-01-25T21:41:04.239Z,-0.88
2017-01-25T21:43:17.411Z,-0.87
2017-01-25T21:45:29.885Z,-0.84
2017-01-25T21:47:42.128Z,-0.82
2017-01-25T21:49:54.441Z,-0.82
2017-01-25T21:52:06.760Z,-0.83
2017-01-25T21:54:19.281Z,-0.85
2017-01-25T21:56:34.307Z,-0.85
2017-01-25T21:58:48.328Z,-0.85
2017-01-25T22:01:00.580Z,-0.82
2017-01-25T22:03:12.909Z,-0.81
2017-01-25T22:05:25.428Z,-0.82
2017-01-25T22:07:38.090Z,-0.85
2017-01-25T22:09:50.376Z,-0.86
2017-01-25T22:12:02.881Z,-0.88
2017-01-25T22:14:15.225Z,-0.89
2017-01-25T22:16:27.755Z,-0.88
2017-01-25T22:18:40.166Z,-0.88
2017-01-25T22:20:52.656Z,-0.87
2017-01-25T22:23:05.039Z,-0.87
2017-01-25T22:25:17.398Z,-0.86
2017-01-25T22:27:29.861Z,-0.87
2017-01-25T22:29:42.253Z,-0.85
2017-01-25T22:31:54.607Z,-0.83
2017-01-25T22:34:07.097Z,-0.8
2017-01-25T22:36:19.634Z,-0.79
2017-01-25T22:38:32.227Z,-0.79
2017-01-25T22:40:46.871Z,-0.79
2017-01-25T22:43:06.156Z,-0.8
2017-01-25T22:45:18.554Z,-0.81
2017-01-25T22:47:26.055Z,-0.82
2017-01-25T22:49:38.690Z,-0.83
2017-01-25T22:51:46.856Z,-0.82
2017-01-25T22:53:54.267Z,-0.82
2017-01-25T22:56:06.776Z,-0.83
2017-01-25T22:58:19.365Z,-0.83
2017-01-25T23:00:31.902Z,-0.83
2017-01-25T23:02:44.355Z,-0.83
2017-01-25T23:04:56.715Z,-0.83
2017-01-25T23:07:09.225Z,-0.82
2017-01-25T23:09:21.700Z,-0.8
2017-01-25T23:11:34.394Z,-0.8
2017-01-25T23:13:47.149Z,-0.8
2017-01-25T23:15:59.647Z,-0.8
2017-01-25T23:18:12.036Z,-0.77
2017-01-25T23:20:19.623Z,-0.75
2017-01-25T23:22:26.997Z,-0.75
2017-01-25T23:24:39.226Z,-0.74
2017-01-25T23:26:51.477Z,-0.74
2017-01-25T23:29:04.030Z,-0.76
2017-01-25T23:31:11.259Z,-0.77
2017-01-25T23:33:23.766Z,-0.76
2017-01-25T23:35:36.115Z,-0.75
2017-01-25T23:37:48.346Z,-0.75
2017-01-25T23:40:01.012Z,-0.76
2017-01-25T23:42:13.690Z,-0.74
2017-01-25T23:44:26.000Z,-0.73
2017-01-25T23:46:38.318Z,-0.72
2017-01-25T23:48:51.046Z,-0.72
2017-01-25T23:50:58.824Z,-0.73
2017-01-25T23:53:11.201Z,-0.75
2017-01-25T23:55:18.646Z,-0.77
2017-01-25T23:57:25.993Z,-0.76
2017-01-25T23:59:38.304Z,-0.73
